createdAt,value
2019-05-18T00:03:00.000Z,98112
2019-05-18T00:08:00.000Z,98115
2019-05-18T00:13:00.000Z,98117
2019-05-18T00:18:00.000Z,98110
2019-05-18T00:23:00.000Z,98096
2019-05-18T00:28:00.000Z,98103
2019-05-18T00:33:00.000Z,98103
2019-05-18T00:38:00.000Z,98090
2019-05-18T00:43:00.000Z,98096
2019-05-18T00:49:00.000Z,98078
2019-05-18T00:54:00.000Z,98091
2019-05-18T00:59:00.000Z,98080
2019-05-18T01:04:00.000Z,98084
2019-05-18T01:09:00.000Z,98098
2019-05-18T01:14:00.000Z,98082
2019-05-18T01:19:00.000Z,98073
2019-05-18T01:24:00.000Z,98062
2019-05-18T01:29:00.000Z,98062
2019-05-18T01:34:00.000Z,98053
2019-05-18T01:39:00.000Z,98065
2019-05-18T01:44:00.000Z,98062
2019-05-18T01:49:00.000Z,98062
2019-05-18T01:54:00.000Z,98059
2019-05-18T01:59:00.000Z,98052
2019-05-18T02:04:00.000Z,98056
2019-05-18T02:09:00.000Z,98060
2019-05-18T02:14:00.000Z,98050
2019-05-18T02:19:00.000Z,98043
2019-05-18T02:24:00.000Z,98046
2019-05-18T02:29:00.000Z,98054
2019-05-18T02:34:00.000Z,98045
2019-05-18T02:39:00.000Z,98041
2019-05-18T02:44:00.000Z,98036
2019-05-18T02:49:00.000Z,98048
2019-05-18T02:54:00.000Z,98055
2019-05-18T02:59:00.000Z,98048
2019-05-18T03:04:00.000Z,98060
2019-05-18T03:09:00.000Z,98060
2019-05-18T03:14:00.000Z,98056
2019-05-18T03:19:00.000Z,98049
2019-05-18T03:24:00.000Z,98057
2019-05-18T03:29:00.000Z,98050
2019-05-18T03:34:00.000Z,98057
2019-05-18T03:39:00.000Z,98045
2019-05-18T03:44:00.000Z,98055
2019-05-18T03:49:00.000Z,98065
2019-05-18T03:54:00.000Z,98064
2019-05-18T03:59:00.000Z,98065
2019-05-18T04:04:00.000Z,98062
2019-05-18T04:09:00.000Z,98066
2019-05-18T04:14:00.000Z,98065
2019-05-18T04:19:00.000Z,98058
2019-05-18T04:24:00.000Z,98062
2019-05-18T04:29:00.000Z,98067
2019-05-18T04:34:00.000Z,98075
2019-05-18T04:39:00.000Z,98070
2019-05-18T04:44:00.000Z,98075
2019-05-18T04:49:00.000Z,98068
2019-05-18T04:55:00.000Z,98066
2019-05-18T05:00:00.000Z,98070
2019-05-18T05:05:00.000Z,98073
2019-05-18T05:10:00.000Z,98062
2019-05-18T05:15:00.000Z,98078
2019-05-18T05:20:00.000Z,98069
2019-05-18T05:25:00.000Z,98061
2019-05-18T05:30:00.000Z,98075
2019-05-18T05:35:00.000Z,98072
2019-05-18T05:40:00.000Z,98077
2019-05-18T05:45:00.000Z,98084
2019-05-18T05:50:00.000Z,98084
2019-05-18T05:55:00.000Z,98083
2019-05-18T06:00:00.000Z,98088
2019-05-18T06:05:00.000Z,98106
2019-05-18T06:10:00.000Z,98100
2019-05-18T06:15:00.000Z,98099
2019-05-18T06:20:00.000Z,98097
2019-05-18T06:25:00.000Z,98100
2019-05-18T06:30:00.000Z,98103
2019-05-18T06:35:00.000Z,98110
2019-05-18T06:40:00.000Z,98116
2019-05-18T06:45:00.000Z,98113
2019-05-18T06:50:00.000Z,98115
2019-05-18T06:56:00.000Z,98102
2019-05-18T07:01:00.000Z,98108
2019-05-18T07:06:00.000Z,98106
2019-05-18T07:11:00.000Z,98116
2019-05-18T07:16:00.000Z,98114
2019-05-18T07:21:00.000Z,98116
2019-05-18T07:26:00.000Z,98121
2019-05-18T07:31:00.000Z,98119
2019-05-18T07:36:00.000Z,98129
2019-05-18T07:41:00.000Z,98121
2019-05-18T07:46:00.000Z,98109
2019-05-18T07:51:00.000Z,98124
2019-05-18T07:56:00.000Z,98125
2019-05-18T08:01:00.000Z,98127
2019-05-18T08:06:00.000Z,98132
2019-05-18T08:11:00.000Z,98136
2019-05-18T08:16:00.000Z,98118
2019-05-18T08:21:00.000Z,98133
2019-05-18T08:26:00.000Z,98137
2019-05-18T08:31:00.000Z,98147
2019-05-18T08:36:00.000Z,98135
2019-05-18T08:41:00.000Z,98134
2019-05-18T08:46:00.000Z,98138
2019-05-18T08:51:00.000Z,98144
2019-05-18T08:57:00.000Z,98148
2019-05-18T09:02:00.000Z,98145
2019-05-18T09:07:00.000Z,98142
2019-05-18T09:12:00.000Z,98152
2019-05-18T09:17:00.000Z,98154
2019-05-18T09:22:00.000Z,98153
2019-05-18T09:27:00.000Z,98155
2019-05-18T09:32:00.000Z,98152
2019-05-18T09:37:00.000Z,98152
2019-05-18T09:42:00.000Z,98150
2019-05-18T09:47:00.000Z,98152
2019-05-18T09:52:00.000Z,98147
2019-05-18T09:57:00.000Z,98143
2019-05-18T10:02:00.000Z,98136
2019-05-18T10:07:00.000Z,98128
2019-05-18T10:12:00.000Z,98137
2019-05-18T10:17:00.000Z,98135
2019-05-18T10:22:00.000Z,98134
2019-05-18T10:28:00.000Z,98133
2019-05-18T10:33:00.000Z,98114
2019-05-18T10:38:00.000Z,98102
2019-05-18T10:43:00.000Z,98097
2019-05-18T10:48:00.000Z,98103
2019-05-18T10:53:00.000Z,98108
2019-05-18T10:58:00.000Z,98108
2019-05-18T11:03:00.000Z,98095
2019-05-18T11:08:00.000Z,98093
2019-05-18T11:13:00.000Z,98106
2019-05-18T11:18:00.000Z,98098
2019-05-18T11:23:00.000Z,98087
2019-05-18T11:28:00.000Z,98088
2019-05-18T11:33:00.000Z,98089
2019-05-18T11:38:00.000Z,98096
2019-05-18T11:43:00.000Z,98095
2019-05-18T11:48:00.000Z,98098
2019-05-18T11:53:00.000Z,98096
2019-05-18T11:58:00.000Z,98084
2019-05-18T12:03:00.000Z,98080
2019-05-18T12:09:00.000Z,98075
2019-05-18T12:14:00.000Z,98084
2019-05-18T12:19:00.000Z,98089
2019-05-18T12:24:00.000Z,98063
2019-05-18T12:29:00.000Z,98057
2019-05-18T12:34:00.000Z,98056
2019-05-18T12:39:00.000Z,98049
2019-05-18T12:44:00.000Z,98045
2019-05-18T12:49:00.000Z,98033
2019-05-18T12:54:00.000Z,98021
2019-05-18T12:59:00.000Z,98026
2019-05-18T13:04:00.000Z,98017
2019-05-18T13:09:00.000Z,98020
2019-05-18T13:14:00.000Z,98008
2019-05-18T13:19:00.000Z,98001
2019-05-18T13:24:00.000Z,98011
2019-05-18T13:29:00.000Z,98004
2019-05-18T13:34:00.000Z,97992
2019-05-18T13:39:00.000Z,98002
2019-05-18T13:44:00.000Z,98000
2019-05-18T13:49:00.000Z,97981
2019-05-18T13:54:00.000Z,98001
2019-05-18T14:00:00.000Z,97980
2019-05-18T14:05:00.000Z,97978
2019-05-18T14:10:00.000Z,97973
2019-05-18T14:15:00.000Z,97968
2019-05-18T14:20:00.000Z,97967
2019-05-18T14:25:00.000Z,97969
2019-05-18T14:30:00.000Z,97975
2019-05-18T14:35:00.000Z,97964
2019-05-18T14:40:00.000Z,97966
2019-05-18T14:45:00.000Z,97965
2019-05-18T14:50:00.000Z,97956
2019-05-18T14:55:00.000Z,97945
2019-05-18T15:00:00.000Z,97937
2019-05-18T15:05:00.000Z,97946
2019-05-18T15:10:00.000Z,97937
2019-05-18T15:15:00.000Z,97932
2019-05-18T15:20:00.000Z,97936
2019-05-18T15:25:00.000Z,97925
2019-05-18T15:30:00.000Z,97925
2019-05-18T15:35:00.000Z,97915
2019-05-18T15:40:00.000Z,97914
2019-05-18T15:45:00.000Z,97907
2019-05-18T15:50:00.000Z,97908
2019-05-18T15:55:00.000Z,97898
2019-05-18T16:01:00.000Z,97891
2019-05-18T16:06:00.000Z,97897
2019-05-18T16:11:00.000Z,97902
2019-05-18T16:16:00.000Z,97894
2019-05-18T16:21:00.000Z,97886
2019-05-18T16:26:00.000Z,97909
2019-05-18T16:31:00.000Z,97908
2019-05-18T16:36:00.000Z,97902
2019-05-18T16:41:00.000Z,97906
2019-05-18T16:46:00.000Z,97910
2019-05-18T16:51:00.000Z,97906
2019-05-18T16:56:00.000Z,97900
2019-05-18T17:01:00.000Z,97910
2019-05-18T17:06:00.000Z,97900
2019-05-18T17:11:00.000Z,97899
2019-05-18T17:16:00.000Z,97889
2019-05-18T17:21:00.000Z,97897
2019-05-18T17:26:00.000Z,97890
2019-05-18T17:31:00.000Z,97895
2019-05-18T17:36:00.000Z,97893
2019-05-18T17:41:00.000Z,97895
2019-05-18T17:46:00.000Z,97882
2019-05-18T17:51:00.000Z,97893
2019-05-18T17:56:00.000Z,97895
2019-05-18T18:02:00.000Z,97892
2019-05-18T18:07:00.000Z,97891
2019-05-18T18:12:00.000Z,97906
2019-05-18T18:17:00.000Z,97906
2019-05-18T18:22:00.000Z,97903
2019-05-18T18:27:00.000Z,97914
2019-05-18T18:32:00.000Z,97922
2019-05-18T18:37:00.000Z,97923
2019-05-18T18:42:00.000Z,97923
2019-05-18T18:47:00.000Z,97932
2019-05-18T18:52:00.000Z,97931
2019-05-18T18:57:00.000Z,97938
2019-05-18T19:02:00.000Z,97937
2019-05-18T19:07:00.000Z,97944
2019-05-18T19:12:00.000Z,97952
2019-05-18T19:17:00.000Z,97942
2019-05-18T19:22:00.000Z,97958
2019-05-18T19:27:00.000Z,97950
2019-05-18T19:32:00.000Z,97952
2019-05-18T19:37:00.000Z,97957
2019-05-18T19:42:00.000Z,97965
2019-05-18T19:47:00.000Z,97956
2019-05-18T19:52:00.000Z,97946
2019-05-18T19:57:00.000Z,97951
2019-05-18T20:03:00.000Z,97949
2019-05-18T20:08:00.000Z,97953
2019-05-18T20:13:00.000Z,97949
2019-05-18T20:18:00.000Z,97940
2019-05-18T20:23:00.000Z,97944
2019-05-18T20:28:00.000Z,97931
2019-05-18T20:33:00.000Z,97920
2019-05-18T20:38:00.000Z,97924
2019-05-18T20:43:00.000Z,97911
2019-05-18T20:48:00.000Z,97907
2019-05-18T20:53:00.000Z,97913
2019-05-18T20:58:00.000Z,97912
2019-05-18T21:03:00.000Z,97915
2019-05-18T21:08:00.000Z,97924
2019-05-18T21:13:00.000Z,97912
2019-05-18T21:18:00.000Z,97913
2019-05-18T21:23:00.000Z,97895
2019-05-18T21:28:00.000Z,97902
2019-05-18T21:34:00.000Z,97902
2019-05-18T21:39:00.000Z,97891
2019-05-18T21:44:00.000Z,97897
2019-05-18T21:49:00.000Z,97887
2019-05-18T21:54:00.000Z,97877
2019-05-18T21:59:00.000Z,97880
2019-05-18T22:04:00.000Z,97880
2019-05-18T22:09:00.000Z,97873
2019-05-18T22:14:00.000Z,97869
2019-05-18T22:19:00.000Z,97869
2019-05-18T22:24:00.000Z,97856
2019-05-18T22:29:00.000Z,97846
2019-05-18T22:34:00.000Z,97844
2019-05-18T22:39:00.000Z,97833
2019-05-18T22:44:00.000Z,97838
2019-05-18T22:49:00.000Z,97824
2019-05-18T22:54:00.000Z,97821
2019-05-18T22:59:00.000Z,97831
2019-05-18T23:04:00.000Z,97819
2019-05-18T23:09:00.000Z,97823
2019-05-18T23:14:00.000Z,97828
2019-05-18T23:19:00.000Z,97817
2019-05-18T23:24:00.000Z,97813
2019-05-18T23:29:00.000Z,97805
2019-05-18T23:34:00.000Z,97803
2019-05-18T23:39:00.000Z,97805
2019-05-18T23:44:00.000Z,97804
2019-05-18T23:49:00.000Z,97800
2019-05-18T23:54:00.000Z,97800
2019-05-18T23:59:00.000Z,97808
